Site contains unofficial IBTrACS data. Visit the IBTrACS Website to access archived data.

1876 Tropical Storm NOT_NAMED (1876257N14319)


IBTrACS version v04r00. Visit IBTrACS website for data access.
Please direct all questions to the IBTrACS Q and A forum

Storm track - Intensity - Wind Radii - Intensity Data - Source Data - All data

Summary Information

Storm ID 1876257N14319
Start Sep 12 12Z
Max Intensity 50 kt (Sep 15 12Z)
End Sep 18 12Z
ATCF IDs
Track status Best track data.

Storm track plot

Map of storm track

Intensity plots

Map of storm track

Radial wind information

No radial wind information for this storm


Position and Intensity Table

BASIN ISO_TIME_________ NATURE LAT LON MLC WIND
degrees north degrees east kts
NA 1876-09-12 12:00:00 TS 14.00 -41.50 35
NA 15:00:00 TS 14.41 -41.91 35
NA 18:00:00 TS 14.80 -42.30 35
NA 21:00:00 TS 15.15 -42.65 35
NA 1876-09-13 00:00:00 TS 15.50 -43.00 35
NA 03:00:00 TS 15.90 -43.40 35
NA 06:00:00 TS 16.30 -43.80 35
NA 09:00:00 TS 16.64 -44.19 37
NA 12:00:00 TS 17.00 -44.50 40
NA 15:00:00 TS 17.48 -44.69 40
NA 18:00:00 TS 18.00 -44.80 40
NA 21:00:00 TS 18.50 -44.92 40
NA 1876-09-14 00:00:00 TS 19.00 -45.00 40
NA 03:00:00 TS 19.50 -45.06 40
NA 06:00:00 TS 20.00 -45.10 40
NA 09:00:00 TS 20.49 -45.16 42
NA 12:00:00 TS 21.00 -45.20 45
NA 15:00:00 TS 21.59 -45.17 45
NA 18:00:00 TS 22.20 -45.10 45
NA 21:00:00 TS 22.76 -45.06 45
NA 1876-09-15 00:00:00 TS 23.30 -45.00 45
NA 03:00:00 TS 23.85 -44.86 45
NA 06:00:00 TS 24.40 -44.70 45
NA 09:00:00 TS 24.94 -44.62 47
NA 12:00:00 TS 25.50 -44.50 50
NA 15:00:00 TS 26.10 -44.22 50
NA 18:00:00 TS 26.70 -43.90 50
NA 21:00:00 TS 27.25 -43.65 50
NA 1876-09-16 00:00:00 TS 27.80 -43.40 50
NA 03:00:00 TS 28.39 -43.10 50
NA 06:00:00 TS 29.00 -42.80 50
NA 09:00:00 TS 29.58 -42.56 50
NA 12:00:00 TS 30.20 -42.30 50
NA 15:00:00 TS 30.94 -41.93 50
NA 18:00:00 TS 31.70 -41.50 50
NA 21:00:00 TS 32.40 -41.05 50
NA 1876-09-17 00:00:00 TS 33.10 -40.60 50
NA 03:00:00 TS 33.85 -40.19 50
NA 06:00:00 TS 34.60 -39.80 50
NA 09:00:00 TS 35.27 -39.50 50
NA 12:00:00 TS 36.00 -39.00 50
NA 15:00:00 TS 36.91 -38.00 50
NA 18:00:00 TS 37.90 -36.80 50
NA 21:00:00 TS 38.85 -35.74 50
NA 1876-09-18 00:00:00 TS 39.80 -34.70 50
NA 03:00:00 TS 40.76 -33.65 47
NA 06:00:00 TS 41.70 -32.60 45
NA 09:00:00 TS 42.61 -31.56 45
NA 12:00:00 ET 43.50 -30.50 45

Source Information

Agency Information
USA
TOKYO
CMA
HKO
NEWDELHI
REUNION
BOM
NADI
WELLINGTON
DS824
TD9636
TD9635
NEUMANN
MLC

All available IBTrACS Data

SEASON BASIN SUBBASIN ISO_TIME_________ NATURE LAT LON DIST2LAND LANDFALL IFLAG USA SSHS MLC LAT MLC LON MLC CLASS MLC WIND STORM SPEED STORM DIR
Year degrees north degrees east km km 1 degrees north degrees east kts kts degrees
1876 NA NA 1876-09-12 12:00:00 TS 14.00 -41.50 1528 1528 _____________O -1 14.00 -41.50 TS 35 12 316
1876 NA NA 15:00:00 TS 14.41 -41.91 1530 1530 _____________P -1 14.41 -41.91 TS 35 11 316
1876 NA NA 18:00:00 TS 14.80 -42.30 1534 1534 _____________O -1 14.80 -42.30 TS 35 10 316
1876 NA NA 21:00:00 TS 15.15 -42.65 1533 1533 _____________P -1 15.15 -42.65 TS 35 10 316
1876 NA NA 1876-09-13 00:00:00 TS 15.50 -43.00 1548 1548 _____________O -1 15.50 -43.00 TS 35 10 316
1876 NA NA 03:00:00 TS 15.90 -43.40 1560 1560 _____________P -1 15.90 -43.40 TS 35 11 316
1876 NA NA 06:00:00 TS 16.30 -43.80 1570 1566 _____________O -1 16.30 -43.80 TS 35 11 314
1876 NA NA 09:00:00 TS 16.64 -44.19 1571 1571 _____________P -1 16.64 -44.19 TS 37 10 316
1876 NA NA 12:00:00 TS 17.00 -44.50 1589 1589 _____________O -1 17.00 -44.50 TS 40 10 330
1876 NA NA 15:00:00 TS 17.48 -44.69 1623 1623 _____________P -1 17.48 -44.69 TS 40 10 344
1876 NA NA 18:00:00 TS 18.00 -44.80 1665 1665 _____________O -1 18.00 -44.80 TS 40 11 348
1876 NA NA 21:00:00 TS 18.50 -44.92 1708 1708 _____________P -1 18.50 -44.92 TS 40 10 349
1876 NA NA 1876-09-14 00:00:00 TS 19.00 -45.00 1751 1751 _____________O -1 19.00 -45.00 TS 40 10 352
1876 NA NA 03:00:00 TS 19.50 -45.06 1795 1795 _____________P -1 19.50 -45.06 TS 40 10 354
1876 NA NA 06:00:00 TS 20.00 -45.10 1844 1844 _____________O -1 20.00 -45.10 TS 40 10 354
1876 NA NA 09:00:00 TS 20.49 -45.16 1889 1889 _____________P -1 20.49 -45.16 TS 42 10 354
1876 NA NA 12:00:00 TS 21.00 -45.20 1939 1939 _____________O -1 21.00 -45.20 TS 45 11 359
1876 NA NA 15:00:00 TS 21.59 -45.17 2000 2000 _____________P -1 21.59 -45.17 TS 45 12 5
1876 NA NA 18:00:00 TS 22.20 -45.10 2065 2065 _____________O -1 22.20 -45.10 TS 45 12 5
1876 NA NA 21:00:00 TS 22.76 -45.06 2126 2126 _____________P -1 22.76 -45.06 TS 45 11 5
1876 NA NA 1876-09-15 00:00:00 TS 23.30 -45.00 2181 2181 _____________O -1 23.30 -45.00 TS 45 11 10
1876 NA NA 03:00:00 TS 23.85 -44.86 2229 2229 _____________P -1 23.85 -44.86 TS 45 11 14
1876 NA NA 06:00:00 TS 24.40 -44.70 2261 2261 _____________O -1 24.40 -44.70 TS 45 11 11
1876 NA NA 09:00:00 TS 24.94 -44.62 2285 2285 _____________P -1 24.94 -44.62 TS 47 11 9
1876 NA NA 12:00:00 TS 25.50 -44.50 2312 2312 _____________O -1 25.50 -44.50 TS 50 12 17
1876 NA NA 15:00:00 TS 26.10 -44.22 2359 2359 _____________P -1 26.10 -44.22 TS 50 13 24
1876 NA NA 18:00:00 TS 26.70 -43.90 2362 2315 _____________O -1 26.70 -43.90 TS 50 13 24
1876 NA NA 21:00:00 TS 27.25 -43.65 2318 2261 _____________P -1 27.25 -43.65 TS 50 12 22
1876 NA NA 1876-09-16 00:00:00 TS 27.80 -43.40 2261 2208 _____________O -1 27.80 -43.40 TS 50 12 23
1876 NA NA 03:00:00 TS 28.39 -43.10 2208 2156 _____________P -1 28.39 -43.10 TS 50 13 24
1876 NA NA 06:00:00 TS 29.00 -42.80 2156 2112 _____________O -1 29.00 -42.80 TS 50 13 22
1876 NA NA 09:00:00 TS 29.58 -42.56 2102 2052 _____________P -1 29.58 -42.56 TS 50 13 20
1876 NA NA 12:00:00 TS 30.20 -42.30 2052 1993 _____________O -1 30.20 -42.30 TS 50 15 22
1876 NA NA 15:00:00 TS 30.94 -41.93 1997 1935 _____________P -1 30.94 -41.93 TS 50 17 25
1876 NA NA 18:00:00 TS 31.70 -41.50 1935 1884 _____________O -1 31.70 -41.50 TS 50 17 27
1876 NA NA 21:00:00 TS 32.40 -41.05 1889 1840 _____________P -1 32.40 -41.05 TS 50 16 28
1876 NA NA 1876-09-17 00:00:00 TS 33.10 -40.60 1840 1795 _____________O -1 33.10 -40.60 TS 50 16 26
1876 NA NA 03:00:00 TS 33.85 -40.19 1795 1742 _____________P -1 33.85 -40.19 TS 50 16 24
1876 NA NA 06:00:00 TS 34.60 -39.80 1742 1700 _____________O -1 34.60 -39.80 TS 50 15 22
1876 NA NA 09:00:00 TS 35.27 -39.50 1696 1664 _____________P -1 35.27 -39.50 TS 50 15 25
1876 NA NA 12:00:00 TS 36.00 -39.00 1664 1645 _____________O -1 36.00 -39.00 TS 50 20 36
1876 NA NA 15:00:00 TS 36.91 -38.00 1651 1645 _____________P -1 36.91 -38.00 TS 50 26 43
1876 NA NA 18:00:00 TS 37.90 -36.80 1649 1646 _____________O -1 37.90 -36.80 TS 50 26 43
1876 NA NA 21:00:00 TS 38.85 -35.74 1658 1651 _____________P -1 38.85 -35.74 TS 50 25 41
1876 NA NA 1876-09-18 00:00:00 TS 39.80 -34.70 1662 1662 _____________O -1 39.80 -34.70 TS 50 25 40
1876 NA NA 03:00:00 TS 40.76 -33.65 1677 1677 _____________P -1 40.76 -33.65 TS 47 25 40
1876 NA NA 06:00:00 TS 41.70 -32.60 1697 1697 _____________O -1 41.70 -32.60 TS 45 24 40
1876 NA NA 09:00:00 TS 42.61 -31.56 1724 1715 _____________P -1 42.61 -31.56 TS 45 24 41
1876 NA NA 12:00:00 ET 43.50 -30.50 1707 _____________O -1 43.50 -30.50 EX 45 23 41